HRGA4: Little River, Horatio, AR

                                SHEF ID:       HRGA4     Little River near Horatio, AR
STATION TYPE: Stream Gauge
Regulating: Stage = 21.50, Flow = 17539

PRECIP STAGE RIV-FLOW BAT-LOAD
in ft cfs volt
Ccp-Rev Ccp-Rev Ccp-Rev Ccp-Rev
(America/Chicago)
02/16 00:00 0.00 12.82 6767 12.57
02/16 01:00 0.00 12.75 6692 12.55
02/16 02:00 0.00 12.72 6660 12.53
02/16 03:00 0.00 12.68 6618 12.52
02/16 04:00 0.00 12.65 6586 12.50
02/16 05:00 0.00 12.61 6544 12.48
02/16 06:00 0.00 12.57 6502 12.47
02/16 07:00 0.00 12.51 6438 12.44
02/16 08:00 0.00 12.46 6386 12.44
02/16 09:00 0.00 12.40 6323 12.55
02/16 10:00 0.00 12.32 6240 12.94
02/16 11:00 0.00 12.24 6157 13.33
02/16 12:00 0.00 12.16 6074 13.49
02/16 13:00 0.00 12.06 5971 13.53
02/16 14:00 0.00 11.97 5879 13.42
02/16 15:00 0.00 11.86 5767 13.23
02/16 16:00 0.00 11.75 5655 13.11
02/16 17:00 0.00 11.64 5545 13.02
02/16 18:00 0.00 11.53 5435 12.94
02/16 19:00 0.00 11.40 5306 12.74
02/16 20:00 0.00 11.29 5197 12.66
02/16 21:00 0.00 11.18 5089 12.62
02/16 22:00 0.00 11.06 4973 12.60
02/16 23:00 0.00 10.94 4857 12.57
Data processed at Tue 17Feb2026 05:10 GMT

NOTICE: If you are parsing this page

Please convert to using our Data API. Starting early 2026 we will be migrating to: https://water.usace.army.mil with modern pages rendered in JavaScript. When this migration completes you will no longer be able to scrape this page! CWMSDataAPI (CDA)

Timeseries IDs (TSIDs)

TSIDs used from left to right in the data table
HORA.Precip-Inc.Total.1Hour.1Hour.Ccp-Rev
HORA.Stage.Inst.1Hour.0.Ccp-Rev
HORA.Flow.Inst.1Hour.0.Ccp-Rev
HORA.Volt-Battery Load.Inst.1Hour.0.Ccp-Rev

                            

All information presented herein is the property of the government of the United States of America and may be revised or deleted at any time without prior notice. Dissemination of this information without the expressed written consent of the Public Affairs Office, Tulsa District U.S. Army Corps of Engineers is strictly prohibited. These data are gathered electronically and, as presented, have NOT undergone any form of quality control. These data are NOT guaranteed to be valid or correct.